Suvarnabhumi Airport
VTBS : now visible

Airfield :











YOU CAN JOIN US ON...

 
LOGIN :

Register | Disclaimer

   EN    FR    IT 

 









Legend :    VFR   Marginal VFR   IFR   Intensive IFR   Very Intensive IFR
Visi :
Ceiling :
>= 8 km
>= 3000ft
5 to 8 km
1000 to 3000 ft
1500m to 5 km
500 to 1000 ft
800 to 1500m
200 to 500 ft
< 800m
< 200 ft
Symbols :   Thunderstorms  Fog  Heavy snow  Heavy precipitations  Wind > 20 kt






- Airport Elevation : 5 ft
- IATA code : BKK


VTBS - Suvarnabhumi

CURRENT METAR :
  • 020200Z 06009KT 9999 FEW020 SCT100 28/19 Q1014 NOSIG

EXPIRED METARs :
  • 020130Z 05009KT 9999 FEW020 SCT100 27/19 Q1013 NOSIG
  • 020100Z 05007KT 9999 FEW020 SCT100 27/20 Q1013 NOSIG
  • 020030Z 04007KT 9999 FEW020 BKN090 26/20 Q1012 NOSIG
  • 020000Z 03007KT 9999 FEW020 BKN090 26/20 Q1012 NOSIG
  • 012330Z 04007KT 9999 FEW020 BKN090 26/20 Q1012 NOSIG

TAF TAF VTBS
Valid from the 02 at 00:00 until the 03 at 06:00 UTC


012300Z 0200/0306 05008KT 9000 FEW020 SCT080
VTBB FIR / Asia



MET'MAP, your aeronautical weather chart ! - Copyright ORBIFLY December 2007 - Disclaimer

ORBIFLY MET'MAP TEAM :

Programming & Development : Alexandra Zaïnal
Concept & original design : Baudouin d'Aumeries
Assistance for programming : Marc-Olivier Méhu
Technical & hardware support : Manuel Goepfert

Contact : metmap@orbifly.com




SOURCES & CREDITS :

   NOAA       Earth
Advisory